TimeCDT,TemperatureF,Dew PointF,Humidity,Sea Level PressureIn,VisibilityMPH,Wind Direction,Wind SpeedMPH,Gust SpeedMPH,PrecipitationIn,Events,Conditions,WindDirDegrees,DateUTC
12:15 AM,66.2,66.2,100,30.15,10.0,East,3.5,-,N/A,,Clear,100,2013-09-19 05:15:00
12:35 AM,66.2,-9999,N/A,30.14,10.0,East,4.6,-,N/A,,Clear,100,2013-09-19 05:35:00
12:55 AM,66.2,-9999,N/A,30.14,10.0,East,3.5,-,N/A,,Clear,100,2013-09-19 05:55:00
1:15 AM,66.2,-9999,N/A,30.15,10.0,East,4.6,-,N/A,,Clear,100,2013-09-19 06:15:00
1:35 AM,64.4,-9999,N/A,30.14,10.0,East,4.6,-,N/A,,Clear,100,2013-09-19 06:35:00
1:55 AM,64.4,-9999,N/A,30.14,10.0,ESE,3.5,-,N/A,,Clear,110,2013-09-19 06:55:00
2:15 AM,64.4,-9999,N/A,30.14,10.0,East,4.6,-,N/A,,Clear,100,2013-09-19 07:15:00
2:35 AM,64.4,-9999,N/A,30.14,10.0,ESE,3.5,-,N/A,,Clear,110,2013-09-19 07:35:00
2:55 AM,64.4,-9999,N/A,30.14,10.0,ESE,3.5,-,N/A,,Clear,110,2013-09-19 07:55:00
3:15 AM,64.4,-9999,N/A,30.14,10.0,East,3.5,-,N/A,,Clear,100,2013-09-19 08:15:00
3:35 AM,64.4,-9999,N/A,30.14,10.0,East,3.5,-,N/A,,Clear,100,2013-09-19 08:35:00
3:55 AM,64.4,-9999,N/A,30.14,10.0,East,4.6,-,N/A,,Clear,100,2013-09-19 08:55:00
4:15 AM,64.4,-9999,N/A,30.14,10.0,Calm,Calm,-,N/A,,Clear,0,2013-09-19 09:15:00
4:35 AM,62.6,-9999,N/A,30.14,10.0,Calm,Calm,-,N/A,,Clear,0,2013-09-19 09:35:00
4:55 AM,62.6,-9999,N/A,30.14,10.0,East,3.5,-,N/A,,Clear,100,2013-09-19 09:55:00
5:15 AM,62.6,-9999,N/A,30.15,10.0,East,3.5,-,N/A,,Clear,90,2013-09-19 10:15:00
5:35 AM,62.6,-9999,N/A,30.15,10.0,Calm,Calm,-,N/A,,Clear,0,2013-09-19 10:35:00
5:55 AM,62.6,-9999,N/A,30.16,10.0,Calm,Calm,-,N/A,,Clear,0,2013-09-19 10:55:00
6:15 AM,62.6,-9999,N/A,30.16,10.0,ESE,3.5,-,N/A,,Clear,110,2013-09-19 11:15:00
6:35 AM,62.6,-9999,N/A,30.16,10.0,Calm,Calm,-,N/A,,Clear,0,2013-09-19 11:35:00
6:55 AM,62.6,-9999,N/A,30.17,10.0,East,3.5,-,N/A,,Clear,90,2013-09-19 11:55:00
7:15 AM,62.6,-9999,N/A,30.17,10.0,ESE,3.5,-,N/A,,Clear,110,2013-09-19 12:15:00
7:35 AM,64.4,-9999,N/A,30.18,10.0,Calm,Calm,-,N/A,,Clear,0,2013-09-19 12:35:00
7:55 AM,64.4,-9999,N/A,30.18,10.0,East,4.6,-,N/A,,Clear,100,2013-09-19 12:55:00
8:15 AM,68.0,68.0,100,30.18,10.0,Calm,Calm,-,N/A,,Clear,0,2013-09-19 13:15:00
8:35 AM,68.0,68.0,100,30.18,10.0,SE,5.8,-,N/A,,Clear,140,2013-09-19 13:35:00
8:55 AM,69.8,62.6,78,30.19,10.0,SSE,4.6,-,N/A,,Clear,150,2013-09-19 13:55:00
9:15 AM,71.6,60.8,69,30.19,10.0,SSE,6.9,-,N/A,,Clear,150,2013-09-19 14:15:00
9:35 AM,73.4,60.8,65,30.19,10.0,SSE,4.6,-,N/A,,Clear,150,2013-09-19 14:35:00
9:55 AM,73.4,60.8,65,30.19,10.0,SSE,4.6,-,N/A,,Clear,160,2013-09-19 14:55:00
10:15 AM,73.4,60.8,65,30.19,10.0,SE,5.8,-,N/A,,Clear,130,2013-09-19 15:15:00
10:35 AM,75.2,60.8,61,30.19,10.0,South,3.5,-,N/A,,Clear,180,2013-09-19 15:35:00
10:55 AM,77.0,60.8,57,30.19,10.0,South,4.6,-,N/A,,Clear,170,2013-09-19 15:55:00
11:15 AM,77.0,60.8,57,30.19,10.0,South,4.6,-,N/A,,Clear,180,2013-09-19 16:15:00
11:35 AM,78.8,60.8,54,30.18,10.0,SSE,6.9,-,N/A,,Clear,160,2013-09-19 16:35:00
11:55 AM,77.0,60.8,57,30.17,10.0,SSE,4.6,-,N/A,,Clear,160,2013-09-19 16:55:00
12:15 PM,78.8,60.8,54,30.16,10.0,East,5.8,-,N/A,,Clear,90,2013-09-19 17:15:00
12:35 PM,80.6,62.6,54,30.15,10.0,South,5.8,-,N/A,,Clear,180,2013-09-19 17:35:00
12:55 PM,80.6,62.6,54,30.14,10.0,Calm,Calm,-,N/A,,Clear,0,2013-09-19 17:55:00
1:15 PM,80.6,62.6,54,30.14,10.0,East,5.8,-,N/A,,Clear,90,2013-09-19 18:15:00
1:35 PM,80.6,62.6,54,30.13,10.0,SE,3.5,-,N/A,,Clear,140,2013-09-19 18:35:00
1:55 PM,78.8,62.6,57,30.13,10.0,SE,3.5,-,N/A,,Clear,130,2013-09-19 18:55:00
2:15 PM,80.6,62.6,54,30.12,10.0,South,3.5,-,N/A,,Clear,170,2013-09-19 19:15:00
2:35 PM,80.6,62.6,54,30.12,10.0,Calm,Calm,-,N/A,,Clear,0,2013-09-19 19:35:00
2:55 PM,82.4,62.6,51,30.11,10.0,East,5.8,-,N/A,,Scattered Clouds,90,2013-09-19 19:55:00
3:15 PM,78.8,62.6,57,30.10,10.0,Calm,Calm,-,N/A,,Scattered Clouds,0,2013-09-19 20:15:00
3:35 PM,80.6,62.6,54,30.10,10.0,South,3.5,-,N/A,,Clear,180,2013-09-19 20:35:00
3:55 PM,82.4,62.6,51,30.10,10.0,Calm,Calm,-,N/A,,Clear,0,2013-09-19 20:55:00
4:15 PM,80.6,62.6,54,30.10,10.0,SSE,3.5,-,N/A,,Clear,150,2013-09-19 21:15:00
4:35 PM,78.8,62.6,57,30.09,10.0,SSE,3.5,-,N/A,,Clear,160,2013-09-19 21:35:00
4:55 PM,80.6,62.6,54,30.09,10.0,Calm,Calm,-,N/A,,Clear,0,2013-09-19 21:55:00
5:15 PM,80.6,62.6,54,30.09,10.0,Calm,Calm,-,N/A,,Clear,0,2013-09-19 22:15:00
5:35 PM,78.8,62.6,57,30.09,10.0,SE,3.5,-,N/A,,Clear,130,2013-09-19 22:35:00
5:55 PM,78.8,62.6,57,30.09,10.0,SE,3.5,-,N/A,,Clear,140,2013-09-19 22:55:00
6:15 PM,77.0,62.6,61,30.08,10.0,Calm,Calm,-,N/A,,Clear,0,2013-09-19 23:15:00
6:35 PM,75.2,62.6,65,30.08,10.0,SE,3.5,-,N/A,,Clear,140,2013-09-19 23:35:00
6:55 PM,75.2,62.6,65,30.08,10.0,SE,3.5,-,N/A,,Clear,130,2013-09-19 23:55:00
7:15 PM,73.4,62.6,69,30.08,10.0,SE,3.5,-,N/A,,Clear,130,2013-09-20 00:15:00
7:35 PM,73.4,62.6,69,30.08,10.0,SE,3.5,-,N/A,,Clear,130,2013-09-20 00:35:00
7:55 PM,73.4,62.6,69,30.09,10.0,ESE,3.5,-,N/A,,Clear,120,2013-09-20 00:55:00
8:15 PM,71.6,62.6,73,30.09,10.0,SE,4.6,-,N/A,,Clear,130,2013-09-20 01:15:00
8:35 PM,71.6,62.6,73,30.09,10.0,SE,4.6,-,N/A,,Clear,130,2013-09-20 01:35:00
8:55 PM,71.6,62.6,73,30.09,10.0,SE,4.6,-,N/A,,Clear,130,2013-09-20 01:55:00
9:15 PM,71.6,62.6,73,30.09,10.0,SE,4.6,-,N/A,,Clear,130,2013-09-20 02:15:00
9:35 PM,71.6,62.6,73,30.09,10.0,SE,3.5,-,N/A,,Clear,130,2013-09-20 02:35:00
9:55 PM,69.8,62.6,78,30.09,10.0,SE,4.6,-,N/A,,Clear,140,2013-09-20 02:55:00
10:15 PM,69.8,62.6,78,30.09,10.0,SE,4.6,-,N/A,,Clear,140,2013-09-20 03:15:00
10:35 PM,69.8,62.6,78,30.08,10.0,SE,5.8,-,N/A,,Clear,130,2013-09-20 03:35:00
10:55 PM,69.8,62.6,78,30.09,10.0,SE,4.6,-,N/A,,Clear,140,2013-09-20 03:55:00
11:15 PM,69.8,62.6,78,30.09,10.0,SE,3.5,-,N/A,,Clear,140,2013-09-20 04:15:00
11:35 PM,69.8,62.6,78,30.09,10.0,SSE,4.6,-,N/A,,Clear,150,2013-09-20 04:35:00
11:55 PM,69.8,62.6,78,30.09,10.0,SE,4.6,-,N/A,,Clear,140,2013-09-20 04:55:00